Time;durP1;ratioP1;P1;durP2;ratioP2;P2;SDS_P1;SDS_P2;PMS_P1;PMS_P2;Temp;Humidity;BMP_temperature;BMP_pressure;BME280_temperature;BME280_humidity;BME280_pressure;Samples;Min_cycle;Max_cycle;Signal;HPM_P1;HPM_P2
2022/03/01 00:00:40;;;;;;;4.18;2.33;;;19.90;48.90;;;;;;4476881;32;20540;-71
2022/03/01 00:03:07;;;;;;;4.13;2.10;;;19.80;48.90;;;;;;4476845;32;20109;-71
2022/03/01 00:05:33;;;;;;;3.55;2.00;;;19.80;48.90;;;;;;4477268;32;20095;-71
2022/03/01 00:07:59;;;;;;;6.00;2.38;;;19.80;48.90;;;;;;4477096;32;20073;-71
2022/03/01 00:10:25;;;;;;;4.72;2.35;;;19.80;48.90;;;;;;4463037;32;20077;-71
2022/03/01 00:12:51;;;;;;;2.70;1.90;;;19.70;48.90;;;;;;4476840;32;20140;-71
2022/03/01 00:15:17;;;;;;;5.85;2.10;;;19.70;48.90;;;;;;4477529;32;20081;-71
2022/03/01 00:17:43;;;;;;;3.42;1.98;;;19.70;48.90;;;;;;4477142;32;20088;-71
2022/03/01 00:20:10;;;;;;;3.63;1.95;;;19.70;48.90;;;;;;4476828;32;20081;-71
2022/03/01 00:22:35;;;;;;;3.78;2.22;;;19.70;49.00;;;;;;4477040;32;20107;-71
2022/03/01 00:25:03;;;;;;;4.57;2.05;;;19.60;48.90;;;;;;4476821;32;20511;-70
2022/03/01 00:27:29;;;;;;;4.18;1.90;;;19.60;48.90;;;;;;4462409;32;20081;-71
2022/03/01 00:29:54;;;;;;;4.25;2.00;;;19.60;49.00;;;;;;4476874;32;20124;-71
2022/03/01 00:32:20;;;;;;;2.67;2.10;;;19.60;49.00;;;;;;4476891;32;20077;-71
2022/03/01 00:34:46;;;;;;;3.35;1.98;;;19.60;49.00;;;;;;4476759;32;20692;-71
2022/03/01 00:37:12;;;;;;;2.75;1.90;;;19.60;49.00;;;;;;4476716;32;20061;-71
2022/03/01 00:39:38;;;;;;;2.45;1.85;;;19.60;49.10;;;;;;4462587;32;20546;-71
2022/03/01 00:42:04;;;;;;;3.33;2.00;;;19.50;49.00;;;;;;4476358;32;20083;-70
2022/03/01 00:44:30;;;;;;;3.08;2.13;;;19.50;49.00;;;;;;4476768;32;20223;-71
2022/03/01 00:46:56;;;;;;;3.53;1.95;;;19.50;49.00;;;;;;4476536;32;20095;-71
2022/03/01 00:49:23;;;;;;;2.85;1.73;;;19.50;49.10;;;;;;4462601;32;20131;-71
2022/03/01 00:51:49;;;;;;;3.40;1.95;;;19.40;49.10;;;;;;4476158;32;20211;-71
2022/03/01 00:54:15;;;;;;;3.03;2.20;;;19.40;49.10;;;;;;4462516;32;20061;-70
2022/03/01 00:56:41;;;;;;;4.03;1.90;;;19.40;49.10;;;;;;4476134;32;20069;-71
2022/03/01 00:59:08;;;;;;;3.42;2.00;;;19.40;49.20;;;;;;4476640;32;20522;-71
2022/03/01 01:01:33;;;;;;;3.58;2.13;;;19.40;49.10;;;;;;4476377;32;20077;-71
2022/03/01 01:03:59;;;;;;;4.57;1.90;;;19.40;49.10;;;;;;4462397;32;20453;-70
2022/03/01 01:06:25;;;;;;;3.45;2.08;;;19.40;49.10;;;;;;4476324;32;20077;-71
2022/03/01 01:08:51;;;;;;;4.32;2.08;;;19.30;49.00;;;;;;4475698;32;20335;-71
2022/03/01 01:11:17;;;;;;;3.50;1.90;;;19.30;49.10;;;;;;4462394;32;20430;-71
2022/03/01 01:13:43;;;;;;;2.25;1.73;;;19.30;49.00;;;;;;4475991;32;20491;-71
2022/03/01 01:16:09;;;;;;;3.50;2.10;;;19.30;49.10;;;;;;4475915;32;20073;-71
2022/03/01 01:18:37;;;;;;;3.80;1.90;;;19.30;49.10;;;;;;4476377;32;20086;-71
2022/03/01 01:21:03;;;;;;;4.32;1.75;;;19.30;49.10;;;;;;4476315;32;20234;-70
2022/03/01 01:23:28;;;;;;;3.13;1.92;;;19.20;49.00;;;;;;4476438;32;20073;-71
2022/03/01 01:25:55;;;;;;;3.25;1.90;;;19.20;49.10;;;;;;4462179;32;20117;-71
2022/03/01 01:28:21;;;;;;;2.58;1.73;;;19.20;49.00;;;;;;4476385;32;20290;-71
2022/03/01 01:30:47;;;;;;;2.78;1.80;;;19.20;49.00;;;;;;4476396;32;20334;-71
2022/03/01 01:33:13;;;;;;;3.60;2.30;;;19.20;49.10;;;;;;4476097;32;20085;-71
2022/03/01 01:35:38;;;;;;;3.47;2.03;;;19.20;49.10;;;;;;4475874;32;20073;-71
2022/03/01 01:38:05;;;;;;;2.72;1.85;;;19.20;49.10;;;;;;4476065;32;20509;-70
2022/03/01 01:40:32;;;;;;;3.40;1.92;;;19.20;49.10;;;;;;4476062;32;20077;-71
2022/03/01 01:42:59;;;;;;;3.90;2.00;;;19.20;49.10;;;;;;4476023;32;20182;-71
2022/03/01 01:45:26;;;;;;;3.28;2.00;;;19.10;49.10;;;;;;4475773;32;20073;-71
2022/03/01 01:47:53;;;;;;;2.72;1.63;;;19.10;49.10;;;;;;4476051;32;20211;-71
2022/03/01 01:50:19;;;;;;;3.17;1.90;;;19.10;49.10;;;;;;4475664;32;20246;-71
2022/03/01 01:52:47;;;;;;;2.80;1.95;;;19.10;49.10;;;;;;4475964;32;20077;-71
2022/03/01 01:55:14;;;;;;;3.47;1.90;;;19.10;49.10;;;;;;4461783;32;20092;-71
2022/03/01 01:57:40;;;;;;;3.40;2.30;;;19.10;49.10;;;;;;4462118;32;20092;-71
2022/03/01 02:00:07;;;;;;;2.83;2.00;;;19.00;49.10;;;;;;4475755;32;20085;-71
2022/03/01 02:02:33;;;;;;;3.55;1.77;;;19.00;49.10;;;;;;4475952;32;20195;-71
2022/03/01 02:05:00;;;;;;;2.95;1.80;;;19.10;49.10;;;;;;4475840;32;20629;-71
2022/03/01 02:07:25;;;;;;;3.67;2.15;;;19.00;49.10;;;;;;4475864;32;20093;-71
2022/03/01 02:09:51;;;;;;;2.92;1.80;;;19.00;49.10;;;;;;4475874;32;20155;-71
2022/03/01 02:12:17;;;;;;;2.55;1.70;;;19.00;49.10;;;;;;4461759;32;20089;-70
2022/03/01 02:14:44;;;;;;;2.42;1.85;;;19.00;49.10;;;;;;4476024;32;20084;-71
2022/03/01 02:17:10;;;;;;;3.13;2.10;;;19.00;49.10;;;;;;4448853;32;20084;-70
2022/03/01 02:19:37;;;;;;;3.42;1.90;;;19.00;49.10;;;;;;4475978;32;20138;-71
2022/03/01 02:22:05;;;;;;;2.80;2.00;;;18.90;49.10;;;;;;4461443;32;20085;-70
2022/03/01 02:24:31;;;;;;;2.58;1.90;;;18.90;49.40;;;;;;4461940;32;20279;-71
2022/03/01 02:27:01;;;;;;;2.35;1.92;;;18.90;49.10;;;;;;4478217;32;20081;-71
2022/03/01 02:29:28;;;;;;;4.10;2.15;;;18.90;49.10;;;;;;4478311;32;20270;-71
2022/03/01 02:31:56;;;;;;;2.97;1.70;;;18.90;49.00;;;;;;4464276;32;20074;-71
2022/03/01 02:34:22;;;;;;;2.45;1.88;;;18.90;49.10;;;;;;4464202;32;20446;-71
2022/03/01 02:36:48;;;;;;;2.17;1.80;;;18.90;49.10;;;;;;4478661;32;20151;-71
2022/03/01 02:39:15;;;;;;;2.35;1.75;;;18.90;49.10;;;;;;4478178;32;20162;-71
2022/03/01 02:41:43;;;;;;;3.47;2.10;;;18.90;49.10;;;;;;4478646;32;20477;-71
2022/03/01 02:44:10;;;;;;;2.05;1.60;;;18.80;49.10;;;;;;4478293;32;20087;-71
2022/03/01 02:46:36;;;;;;;2.92;1.90;;;18.80;49.10;;;;;;4478548;32;20084;-71
2022/03/01 02:49:04;;;;;;;2.35;1.67;;;18.80;49.10;;;;;;4478311;32;20077;-71
2022/03/01 02:51:30;;;;;;;4.30;2.15;;;18.80;49.10;;;;;;4478226;32;20093;-71
2022/03/01 02:53:56;;;;;;;2.58;1.90;;;18.80;49.10;;;;;;4477945;32;20081;-71
2022/03/01 02:56:22;;;;;;;2.53;1.70;;;18.80;49.10;;;;;;4478194;32;20076;-70
2022/03/01 02:58:48;;;;;;;3.35;2.00;;;18.80;49.10;;;;;;4478129;32;20096;-71
2022/03/01 03:01:14;;;;;;;3.15;2.00;;;18.80;49.10;;;;;;4478091;32;20081;-70
2022/03/01 03:03:40;;;;;;;3.08;2.03;;;18.70;49.00;;;;;;4477752;32;20070;-71
2022/03/01 03:06:06;;;;;;;2.58;1.95;;;18.70;49.00;;;;;;4478178;32;20211;-70
2022/03/01 03:08:32;;;;;;;2.20;1.58;;;18.70;49.00;;;;;;4477824;32;20124;-71
2022/03/01 03:10:59;;;;;;;2.22;1.77;;;18.70;49.10;;;;;;4477603;32;20298;-71
2022/03/01 03:13:25;;;;;;;2.55;1.90;;;18.70;49.10;;;;;;4477983;32;20239;-71
2022/03/01 03:15:52;;;;;;;2.17;1.98;;;18.70;49.10;;;;;;4478236;32;20131;-70
2022/03/01 03:18:18;;;;;;;2.60;1.88;;;18.70;49.10;;;;;;4463820;32;20085;-70
2022/03/01 03:20:44;;;;;;;2.33;1.73;;;18.60;49.00;;;;;;4477912;32;20386;-71
2022/03/01 03:23:10;;;;;;;2.53;1.80;;;18.60;49.00;;;;;;4476579;32;20088;-70
2022/03/01 03:25:36;;;;;;;3.35;1.60;;;18.60;49.00;;;;;;4477902;32;20088;-71
2022/03/01 03:28:03;;;;;;;2.30;1.67;;;18.60;49.00;;;;;;4478141;32;20081;-70
2022/03/01 03:30:29;;;;;;;1.85;1.50;;;18.60;49.00;;;;;;4463609;32;20076;-71
2022/03/01 03:32:55;;;;;;;1.77;1.45;;;18.60;49.00;;;;;;4477933;32;20066;-71
2022/03/01 03:35:21;;;;;;;3.10;1.90;;;18.60;49.00;;;;;;4477509;32;20227;-71
2022/03/01 03:37:47;;;;;;;2.25;1.75;;;18.60;49.00;;;;;;4476710;32;20267;-71
2022/03/01 03:40:13;;;;;;;2.75;2.13;;;18.60;49.00;;;;;;4477918;32;20066;-70
2022/03/01 03:42:39;;;;;;;2.63;1.98;;;18.60;49.00;;;;;;4477492;32;20057;-71
2022/03/01 03:45:06;;;;;;;3.30;2.13;;;18.60;49.00;;;;;;4477882;32;20088;-70
2022/03/01 03:47:32;;;;;;;2.85;1.65;;;18.50;49.00;;;;;;4477507;32;20066;-70
2022/03/01 03:49:58;;;;;;;2.08;1.67;;;18.50;49.00;;;;;;4477306;32;20218;-70
2022/03/01 03:52:24;;;;;;;3.10;1.90;;;18.50;49.10;;;;;;4477698;32;20103;-70
2022/03/01 03:54:50;;;;;;;3.13;2.53;;;18.50;49.10;;;;;;4477129;32;20097;-71
2022/03/01 03:57:16;;;;;;;1.90;1.60;;;18.40;49.00;;;;;;4477386;32;20084;-71
2022/03/01 03:59:42;;;;;;;2.80;1.90;;;18.50;49.10;;;;;;4477323;32;20530;-71
2022/03/01 04:02:09;;;;;;;2.53;2.00;;;18.40;49.00;;;;;;4477321;32;20162;-71
2022/03/01 04:04:35;;;;;;;2.75;2.00;;;18.40;49.00;;;;;;4477237;32;20167;-71
2022/03/01 04:07:02;;;;;;;2.92;1.95;;;18.40;49.00;;;;;;4477303;32;20411;-70
2022/03/01 04:09:28;;;;;;;2.85;1.88;;;18.40;49.00;;;;;;4476957;32;20592;-71
2022/03/01 04:11:54;;;;;;;2.45;1.80;;;18.40;49.00;;;;;;4477559;32;20077;-71
2022/03/01 04:14:20;;;;;;;3.25;1.95;;;18.40;49.00;;;;;;4477268;32;20081;-71
2022/03/01 04:16:46;;;;;;;2.35;1.90;;;18.40;49.00;;;;;;4476778;32;20081;-71
2022/03/01 04:19:13;;;;;;;2.45;1.75;;;18.40;49.00;;;;;;4477241;32;20088;-70
2022/03/01 04:21:39;;;;;;;2.63;1.90;;;18.40;49.00;;;;;;4462871;32;20388;-71
2022/03/01 04:24:06;;;;;;;2.72;1.88;;;18.30;48.90;;;;;;4476921;32;20435;-70
2022/03/01 04:26:32;;;;;;;1.90;1.67;;;18.40;49.00;;;;;;4476587;32;20427;-70
2022/03/01 04:28:59;;;;;;;2.30;1.90;;;18.30;49.00;;;;;;4476960;32;20081;-70
2022/03/01 04:31:25;;;;;;;2.30;1.75;;;18.30;49.00;;;;;;4476552;32;20394;-70
2022/03/01 04:33:54;;;;;;;2.67;1.80;;;18.30;48.90;;;;;;4462706;32;20085;-71
2022/03/01 04:36:20;;;;;;;2.85;1.90;;;18.30;48.90;;;;;;4476372;32;20077;-71
2022/03/01 04:38:47;;;;;;;2.13;1.63;;;18.30;49.00;;;;;;4476956;32;20178;-71
2022/03/01 04:41:13;;;;;;;3.08;1.85;;;18.30;49.00;;;;;;4476602;32;20080;-70
2022/03/01 04:43:39;;;;;;;3.20;2.00;;;18.30;49.00;;;;;;4476662;32;20158;-71
2022/03/01 04:46:05;;;;;;;3.22;1.80;;;18.30;49.00;;;;;;4476375;32;20073;-70
2022/03/01 04:48:31;;;;;;;3.28;1.92;;;18.30;49.00;;;;;;4462205;32;20076;-70
2022/03/01 04:50:57;;;;;;;2.28;1.60;;;18.30;49.10;;;;;;4476427;32;20113;-71
2022/03/01 04:53:23;;;;;;;2.08;1.70;;;18.20;49.00;;;;;;4476595;32;20074;-71
2022/03/01 04:55:50;;;;;;;2.35;1.67;;;18.20;49.00;;;;;;4476727;32;20066;-71
2022/03/01 04:58:15;;;;;;;2.40;1.73;;;18.20;49.00;;;;;;4476486;32;20095;-70
2022/03/01 05:00:41;;;;;;;1.83;1.65;;;18.20;49.00;;;;;;4476458;32;20091;-71
2022/03/01 05:03:07;;;;;;;1.88;1.50;;;18.20;49.00;;;;;;4476403;32;20097;-71
2022/03/01 05:05:33;;;;;;;2.30;2.00;;;18.20;49.00;;;;;;4476579;32;20066;-70
2022/03/01 05:07:59;;;;;;;1.90;1.70;;;18.20;49.00;;;;;;4476085;32;20073;-70
2022/03/01 05:10:25;;;;;;;3.95;1.70;;;18.20;49.00;;;;;;4476237;32;20084;-70
2022/03/01 05:12:53;;;;;;;2.35;2.00;;;18.10;49.00;;;;;;4449337;32;20074;-71
2022/03/01 05:15:20;;;;;;;2.33;1.95;;;18.10;49.00;;;;;;4476069;32;20074;-71
2022/03/01 05:17:47;;;;;;;2.63;1.60;;;18.10;49.00;;;;;;4476507;32;20073;-71
2022/03/01 05:20:16;;;;;;;1.88;1.67;;;18.10;49.00;;;;;;4475984;32;20147;-70
2022/03/01 05:22:43;;;;;;;1.73;1.63;;;18.10;49.00;;;;;;4462160;32;20537;-71
2022/03/01 05:25:11;;;;;;;2.42;1.70;;;18.10;49.00;;;;;;4476410;32;20089;-70
2022/03/01 05:27:39;;;;;;;2.13;1.58;;;18.10;49.10;;;;;;4476172;32;20587;-71
2022/03/01 05:30:08;;;;;;;2.55;1.75;;;18.10;49.00;;;;;;4476149;32;20089;-70
2022/03/01 05:32:35;;;;;;;2.28;1.85;;;18.10;49.00;;;;;;4462316;32;20608;-71
2022/03/01 05:35:02;;;;;;;2.65;1.90;;;18.10;49.10;;;;;;4476138;32;20090;-70
2022/03/01 05:37:28;;;;;;;1.90;1.52;;;18.10;49.10;;;;;;4475845;32;20117;-71
2022/03/01 05:39:54;;;;;;;2.53;2.00;;;18.00;49.00;;;;;;4476330;32;20143;-70
2022/03/01 05:42:20;;;;;;;2.25;1.60;;;18.00;49.00;;;;;;4476057;32;20073;-70
2022/03/01 05:44:46;;;;;;;1.90;1.60;;;18.00;49.00;;;;;;4476063;32;20089;-70
2022/03/01 05:47:12;;;;;;;2.60;1.70;;;18.00;49.00;;;;;;4476071;32;20065;-70
2022/03/01 05:49:38;;;;;;;3.13;1.70;;;18.00;49.00;;;;;;4461631;32;20223;-71
2022/03/01 05:52:05;;;;;;;1.90;1.67;;;18.00;49.00;;;;;;4476033;32;20077;-70
2022/03/01 05:54:31;;;;;;;2.42;1.95;;;18.00;49.00;;;;;;4476251;32;20167;-71
2022/03/01 05:56:56;;;;;;;1.88;1.70;;;18.00;49.00;;;;;;4475967;32;20085;-71
2022/03/01 05:59:23;;;;;;;2.38;1.75;;;18.00;49.00;;;;;;4475746;32;20158;-70
2022/03/01 06:01:49;;;;;;;2.55;1.73;;;17.90;49.00;;;;;;4479007;32;20085;-70
2022/03/01 06:04:15;;;;;;;3.33;1.83;;;17.90;49.10;;;;;;4479253;32;20088;-71
2022/03/01 06:06:41;;;;;;;2.58;1.55;;;17.90;49.10;;;;;;4479011;32;20121;-70
2022/03/01 06:09:07;;;;;;;2.03;1.55;;;17.90;49.10;;;;;;4478513;32;20250;-70
2022/03/01 06:11:33;;;;;;;1.83;1.60;;;17.90;49.10;;;;;;4478886;32;20517;-71
2022/03/01 06:13:58;;;;;;;2.05;1.58;;;17.90;49.10;;;;;;4478761;32;20077;-70
2022/03/01 06:16:24;;;;;;;2.70;1.80;;;17.90;49.00;;;;;;4478430;32;20600;-71
2022/03/01 06:18:50;;;;;;;2.08;1.60;;;17.90;49.10;;;;;;4478407;32;20099;-70
2022/03/01 06:21:16;;;;;;;2.80;1.90;;;17.90;49.10;;;;;;4478836;32;20155;-70
2022/03/01 06:23:42;;;;;;;2.45;1.67;;;17.90;49.20;;;;;;4478607;32;20070;-70
2022/03/01 06:26:08;;;;;;;2.50;1.80;;;17.90;49.10;;;;;;4478529;32;20262;-70
2022/03/01 06:28:35;;;;;;;2.00;1.50;;;17.90;49.10;;;;;;4478748;32;20167;-70
2022/03/01 06:31:02;;;;;;;2.10;1.77;;;17.80;49.00;;;;;;4478793;32;20207;-70
2022/03/01 06:33:27;;;;;;;2.33;1.70;;;17.80;49.10;;;;;;4478521;32;20562;-70
2022/03/01 06:35:53;;;;;;;2.22;1.75;;;17.80;49.10;;;;;;4478589;32;20083;-71
2022/03/01 06:38:19;;;;;;;4.32;1.60;;;17.80;49.10;;;;;;4478402;32;20165;-72
2022/03/01 06:40:45;;;;;;;4.00;2.00;;;17.80;49.10;;;;;;4478348;32;20493;-71
2022/03/01 06:43:11;;;;;;;2.65;2.30;;;17.80;49.10;;;;;;4478223;32;20112;-71
2022/03/01 06:45:37;;;;;;;2.40;2.00;;;17.80;49.10;;;;;;4478384;32;20196;-72
2022/03/01 06:48:03;;;;;;;3.83;2.58;;;17.70;49.00;;;;;;4478342;32;20111;-71
2022/03/01 06:50:29;;;;;;;3.42;2.30;;;17.70;49.10;;;;;;4478218;32;20096;-72
2022/03/01 06:52:55;;;;;;;4.20;2.65;;;17.80;49.30;;;;;;4478017;32;20415;-71
2022/03/01 06:55:22;;;;;;;6.50;2.67;;;17.80;49.50;;;;;;4478241;32;20180;-72
2022/03/01 06:57:48;;;;;;;13.52;2.72;;;17.80;49.60;;;;;;4478191;32;20077;-72
2022/03/01 07:00:15;;;;;;;5.32;2.30;;;17.80;49.70;;;;;;4478335;32;20541;-72
2022/03/01 07:02:42;;;;;;;4.90;2.28;;;17.90;49.60;;;;;;4478139;32;20096;-71
2022/03/01 07:05:10;;;;;;;5.30;2.58;;;17.90;49.50;;;;;;4478239;32;20194;-70
2022/03/01 07:07:36;;;;;;;5.50;2.55;;;18.00;49.60;;;;;;4478101;32;20153;-73
2022/03/01 07:10:04;;;;;;;7.85;2.67;;;18.00;50.50;;;;;;4477927;32;20065;-72
2022/03/01 07:12:30;;;;;;;4.53;2.35;;;18.10;49.50;;;;;;4477521;32;20095;-72
2022/03/01 07:14:56;;;;;;;7.15;2.40;;;18.30;49.40;;;;;;4478205;32;20089;-71
2022/03/01 07:17:22;;;;;;;4.38;2.30;;;18.40;49.20;;;;;;4477774;32;20410;-71
2022/03/01 07:19:49;;;;;;;4.78;2.17;;;18.60;49.00;;;;;;4477830;32;20168;-72
2022/03/01 07:22:16;;;;;;;3.85;2.30;;;18.70;48.70;;;;;;4477462;32;20077;-71
2022/03/01 07:24:42;;;;;;;5.57;2.17;;;18.80;48.60;;;;;;4477470;32;20092;-71
2022/03/01 07:27:08;;;;;;;7.43;2.22;;;18.90;48.40;;;;;;4477957;32;20585;-71
2022/03/01 07:29:34;;;;;;;5.22;2.40;;;19.00;48.20;;;;;;4477928;32;20170;-67
2022/03/01 07:32:01;;;;;;;6.40;2.10;;;19.20;48.10;;;;;;4477524;32;20400;-71
2022/03/01 07:34:27;;;;;;;4.20;2.22;;;19.20;47.80;;;;;;4477273;32;20084;-71
2022/03/01 07:36:53;;;;;;;5.72;2.28;;;19.30;47.50;;;;;;4477781;32;20219;-71
2022/03/01 07:39:19;;;;;;;7.45;2.83;;;19.40;47.50;;;;;;4477443;32;20082;-70
2022/03/01 07:41:45;;;;;;;4.88;2.70;;;19.60;47.20;;;;;;4477666;32;20150;-72
2022/03/01 07:44:11;;;;;;;6.38;3.08;;;19.70;46.50;;;;;;4477471;32;20419;-73
2022/03/01 07:46:36;;;;;;;19.45;3.58;;;19.80;45.90;;;;;;4477654;32;20081;-76
2022/03/01 07:49:03;;;;;;;6.72;3.22;;;19.80;45.30;;;;;;4477230;32;20487;-72
2022/03/01 07:51:29;;;;;;;10.05;3.50;;;19.90;44.90;;;;;;4477495;32;20174;-70
2022/03/01 07:53:54;;;;;;;4.18;3.33;;;19.90;44.70;;;;;;4476994;32;20477;-69
2022/03/01 07:56:21;;;;;;;9.32;3.35;;;19.90;44.60;;;;;;4477252;32;20074;-68
2022/03/01 07:58:48;;;;;;;8.52;3.13;;;20.00;44.70;;;;;;4462890;32;20166;-69
2022/03/01 08:01:15;;;;;;;8.88;3.10;;;20.00;44.60;;;;;;4477519;32;20077;-70
2022/03/01 08:03:41;;;;;;;9.32;3.00;;;20.00;44.50;;;;;;4476922;32;20526;-70
2022/03/01 08:06:07;;;;;;;13.40;3.75;;;20.00;44.40;;;;;;4476681;32;20057;-69
2022/03/01 08:08:34;;;;;;;5.90;2.50;;;20.10;44.40;;;;;;4476820;32;20081;-71
2022/03/01 08:10:59;;;;;;;9.65;3.38;;;20.10;44.30;;;;;;4476718;32;20089;-70
2022/03/01 08:13:26;;;;;;;5.68;2.88;;;20.10;44.30;;;;;;4476907;32;20081;-73
2022/03/01 08:15:52;;;;;;;6.05;2.80;;;20.10;44.20;;;;;;4476981;32;20454;-69
2022/03/01 08:18:18;;;;;;;8.07;2.95;;;20.20;44.20;;;;;;4477017;32;20574;-70
2022/03/01 08:20:44;;;;;;;11.50;3.03;;;20.30;44.10;;;;;;4476917;32;20084;-72
2022/03/01 08:23:10;;;;;;;7.03;2.83;;;20.40;44.00;;;;;;4476066;32;20527;-72
2022/03/01 08:25:36;;;;;;;9.10;2.72;;;20.50;43.70;;;;;;4476981;32;20191;-71
2022/03/01 08:28:02;;;;;;;11.40;3.40;;;20.60;43.70;;;;;;4476693;32;20073;-70
2022/03/01 08:30:29;;;;;;;11.05;3.53;;;20.60;43.60;;;;;;4476905;32;20183;-71
2022/03/01 08:32:56;;;;;;;5.72;3.00;;;20.70;43.60;;;;;;4462595;32;20088;-71
2022/03/01 08:35:22;;;;;;;10.30;2.90;;;20.70;43.70;;;;;;4476209;32;20091;-71
2022/03/01 08:37:51;;;;;;;7.28;2.92;;;20.70;43.90;;;;;;4462484;32;20113;-71
2022/03/01 08:40:19;;;;;;;10.25;3.53;;;20.70;44.00;;;;;;4476215;32;20073;-71
2022/03/01 08:42:46;;;;;;;5.18;3.63;;;20.60;45.10;;;;;;4476167;32;20073;-71
2022/03/01 08:45:12;;;;;;;7.90;3.53;;;20.60;44.40;;;;;;4476202;32;20166;-71
2022/03/01 08:47:39;;;;;;;7.95;3.00;;;20.60;44.60;;;;;;4475078;32;20164;-72
2022/03/01 08:50:05;;;;;;;12.68;3.55;;;20.50;44.70;;;;;;4476412;32;20423;-72
2022/03/01 08:52:31;;;;;;;9.55;3.70;;;20.50;44.90;;;;;;4476436;32;20081;-72
2022/03/01 08:54:57;;;;;;;10.70;3.47;;;20.50;45.00;;;;;;4476440;32;20369;-72
2022/03/01 08:57:23;;;;;;;5.15;3.45;;;20.40;45.10;;;;;;4476292;32;20084;-72
2022/03/01 08:59:49;;;;;;;9.68;3.38;;;20.40;46.20;;;;;;4476353;32;20136;-72
2022/03/01 09:02:17;;;;;;;12.15;3.95;;;20.30;45.30;;;;;;4476441;32;20196;-71
2022/03/01 09:04:44;;;;;;;7.72;3.30;;;20.30;45.50;;;;;;4476047;32;20085;-70
2022/03/01 09:07:10;;;;;;;9.90;3.65;;;20.20;45.60;;;;;;4476214;32;20073;-71
2022/03/01 09:09:36;;;;;;;8.35;3.42;;;20.20;45.80;;;;;;4462262;32;20065;-70
2022/03/01 09:12:03;;;;;;;9.50;3.50;;;20.20;45.90;;;;;;4476240;32;20151;-70
2022/03/01 09:14:28;;;;;;;6.43;3.42;;;20.20;46.00;;;;;;4476189;32;20129;-70
2022/03/01 09:16:54;;;;;;;6.60;3.90;;;20.20;46.20;;;;;;4476164;32;20061;-70
2022/03/01 09:19:20;;;;;;;11.85;4.00;;;20.20;46.20;;;;;;4475818;32;20061;-70
2022/03/01 09:21:46;;;;;;;11.27;3.70;;;20.20;46.30;;;;;;4475974;32;20211;-70
2022/03/01 09:24:12;;;;;;;19.63;4.25;;;20.20;46.30;;;;;;4476026;32;20057;-70
2022/03/01 09:26:38;;;;;;;8.85;4.00;;;20.20;46.40;;;;;;4475215;32;20109;-69
2022/03/01 09:29:04;;;;;;;14.25;3.78;;;20.20;46.60;;;;;;4475948;32;20070;-70
2022/03/01 09:31:30;;;;;;;6.45;3.63;;;20.20;46.60;;;;;;4476012;32;20511;-70
2022/03/01 09:33:57;;;;;;;7.45;3.83;;;20.20;46.60;;;;;;4476100;32;20081;-70
2022/03/01 09:36:23;;;;;;;7.93;3.67;;;20.20;46.80;;;;;;4477662;32;20162;-71
2022/03/01 09:38:49;;;;;;;9.05;3.90;;;20.20;46.80;;;;;;4479367;32;20215;-71
2022/03/01 09:41:15;;;;;;;7.75;3.90;;;20.10;47.70;;;;;;4479537;32;20403;-71
2022/03/01 09:43:42;;;;;;;10.85;4.38;;;20.20;47.80;;;;;;4478953;32;20520;-75
2022/03/01 09:46:09;;;;;;;13.52;3.90;;;20.10;46.90;;;;;;4479456;32;20688;-73
2022/03/01 09:48:36;;;;;;;10.55;4.03;;;20.10;47.00;;;;;;4479046;32;20120;-73
2022/03/01 09:51:05;;;;;;;9.55;3.90;;;20.10;47.50;;;;;;4478744;32;20461;-73
2022/03/01 09:53:31;;;;;;;9.13;4.53;;;20.00;47.90;;;;;;4479244;32;20108;-72
2022/03/01 09:55:59;;;;;;;8.18;3.95;;;20.00;48.40;;;;;;4478958;32;20062;-73
2022/03/01 09:58:26;;;;;;;7.07;3.88;;;20.00;48.90;;;;;;4478703;32;20492;-71
2022/03/01 10:00:52;;;;;;;8.02;3.88;;;20.00;49.30;;;;;;4478876;32;20155;-72
2022/03/01 10:03:22;;;;;;;8.75;4.50;;;20.00;49.60;;;;;;4478501;32;20171;-73
2022/03/01 10:05:48;;;;;;;11.93;4.20;;;19.90;49.90;;;;;;4479051;32;20271;-72
2022/03/01 10:08:16;;;;;;;10.90;4.22;;;19.90;50.30;;;;;;4478699;32;20411;-72
2022/03/01 10:10:48;;;;;;;6.75;4.25;;;19.90;50.60;;;;;;4478787;32;20507;-72
2022/03/01 10:13:20;;;;;;;8.73;4.60;;;19.90;50.90;;;;;;4478764;32;20061;-72
2022/03/01 10:15:47;;;;;;;10.18;5.13;;;19.90;51.00;;;;;;4478869;32;20399;-72
2022/03/01 10:18:15;;;;;;;13.98;4.90;;;19.80;51.10;;;;;;4479015;32;20236;-72
2022/03/01 10:20:44;;;;;;;6.45;4.72;;;19.80;51.40;;;;;;4478436;32;20227;-72
2022/03/01 10:23:12;;;;;;;9.60;4.90;;;19.80;51.70;;;;;;4478461;32;20170;-73
2022/03/01 10:25:42;;;;;;;9.30;4.05;;;19.80;52.00;;;;;;4478577;32;20585;-72
2022/03/01 10:28:09;;;;;;;9.40;4.82;;;19.80;52.30;;;;;;4478455;32;20160;-72
2022/03/01 10:30:37;;;;;;;13.02;4.63;;;19.80;52.70;;;;;;4478229;32;20081;-72
2022/03/01 10:33:14;;;;;;;8.50;4.70;;;19.80;53.20;;;;;;4478454;32;20084;-73
2022/03/01 10:35:48;;;;;;;9.57;5.20;;;19.90;53.70;;;;;;4478438;32;20088;-74
2022/03/01 10:38:19;;;;;;;11.15;4.25;;;19.90;54.10;;;;;;4478679;32;20538;-73
2022/03/01 10:40:45;;;;;;;9.75;4.82;;;19.90;54.60;;;;;;4478599;32;20086;-73
2022/03/01 10:43:13;;;;;;;7.20;4.60;;;19.90;54.80;;;;;;4478280;32;20150;-74
2022/03/01 10:45:46;;;;;;;9.52;4.90;;;20.00;55.10;;;;;;4477869;32;20107;-73
2022/03/01 10:48:26;;;;;;;5.80;4.35;;;20.00;55.50;;;;;;4478150;32;20113;-73
2022/03/01 10:51:11;;;;;;;8.15;4.60;;;20.00;55.90;;;;;;4478261;32;20131;-73
2022/03/01 10:53:45;;;;;;;10.30;4.85;;;20.00;56.10;;;;;;4478864;32;20089;-72
2022/03/01 10:56:14;;;;;;;10.13;4.35;;;20.00;56.50;;;;;;4478423;32;20093;-73
2022/03/01 10:58:42;;;;;;;11.35;4.95;;;20.00;56.70;;;;;;4478297;32;20166;-72
2022/03/01 11:01:09;;;;;;;7.57;4.63;;;20.00;57.00;;;;;;4478373;32;20073;-72
2022/03/01 11:03:36;;;;;;;6.30;4.03;;;20.00;57.20;;;;;;4478081;32;20514;-73
2022/03/01 11:06:03;;;;;;;9.20;5.03;;;20.00;57.40;;;;;;4478119;32;20088;-73
2022/03/01 11:08:37;;;;;;;9.80;5.57;;;20.00;57.20;;;;;;4478268;32;20527;-75
2022/03/01 11:11:05;;;;;;;11.85;5.47;;;20.00;56.50;;;;;;4478263;32;20223;-75
2022/03/01 11:13:34;;;;;;;9.93;5.28;;;20.00;56.40;;;;;;4477742;32;20129;-76
2022/03/01 11:16:13;;;;;;;13.85;6.55;;;20.00;56.10;;;;;;4478072;32;20136;-86
2022/03/01 11:18:51;;;;;;;15.85;5.90;;;20.00;56.50;;;;;;4477810;32;20096;-73
2022/03/01 11:21:19;;;;;;;9.32;5.65;;;20.00;56.40;;;;;;4477874;32;20085;-73
2022/03/01 11:23:46;;;;;;;10.52;5.50;;;20.00;56.60;;;;;;4477849;32;20069;-72
2022/03/01 11:26:15;;;;;;;11.00;5.47;;;20.00;56.70;;;;;;4477543;32;20099;-73
2022/03/01 11:28:55;;;;;;;7.97;5.20;;;20.00;56.80;;;;;;4477681;32;20065;-73
2022/03/01 11:31:32;;;;;;;10.90;4.80;;;20.00;56.80;;;;;;4477729;32;20092;-73
2022/03/01 11:34:21;;;;;;;10.45;4.90;;;20.00;56.90;;;;;;4477728;32;20105;-73
2022/03/01 11:36:49;;;;;;;9.13;4.85;;;20.10;57.00;;;;;;4477575;32;20077;-73
2022/03/01 11:39:22;;;;;;;7.85;4.88;;;20.10;57.10;;;;;;4477570;32;20526;-72
2022/03/01 11:41:50;;;;;;;11.52;4.80;;;20.10;57.20;;;;;;4478006;32;20077;-72
2022/03/01 11:44:22;;;;;;;5.82;4.80;;;20.10;57.20;;;;;;4477212;32;20077;-72
2022/03/01 11:46:49;;;;;;;8.93;4.55;;;20.10;57.20;;;;;;4477739;32;20487;-73
2022/03/01 11:49:20;;;;;;;7.10;5.10;;;20.10;57.30;;;;;;4477411;32;20092;-73
2022/03/01 11:51:48;;;;;;;8.32;4.63;;;20.10;57.30;;;;;;4477427;32;20069;-73
2022/03/01 11:54:20;;;;;;;7.72;5.10;;;20.10;57.30;;;;;;4477300;32;20079;-73
2022/03/01 11:56:48;;;;;;;6.72;4.80;;;20.10;57.30;;;;;;4477178;32;20089;-72
2022/03/01 11:59:14;;;;;;;7.80;4.55;;;20.10;57.30;;;;;;4476320;32;20109;-73
2022/03/01 12:01:40;;;;;;;6.55;4.43;;;20.10;57.30;;;;;;4477015;32;20215;-72
2022/03/01 12:04:08;;;;;;;5.50;4.22;;;20.10;57.40;;;;;;4477174;32;20089;-72
2022/03/01 12:06:36;;;;;;;8.40;4.60;;;20.10;57.40;;;;;;4477255;32;20186;-73
2022/03/01 12:09:10;;;;;;;9.10;4.60;;;20.10;57.40;;;;;;4476757;32;20104;-72
2022/03/01 12:11:47;;;;;;;9.07;4.13;;;20.10;57.40;;;;;;4477656;32;20204;-72
2022/03/01 12:14:19;;;;;;;4.78;4.10;;;20.10;57.40;;;;;;4477163;32;20506;-72
2022/03/01 12:16:46;;;;;;;11.85;4.30;;;20.10;57.40;;;;;;4477069;32;20415;-72
2022/03/01 12:19:21;;;;;;;6.53;4.20;;;20.10;57.40;;;;;;4477194;32;20093;-72
2022/03/01 12:21:55;;;;;;;6.78;4.25;;;20.10;57.30;;;;;;4476684;32;20117;-73
2022/03/01 12:24:23;;;;;;;6.57;4.53;;;20.10;57.30;;;;;;4476868;32;20203;-72
2022/03/01 12:26:57;;;;;;;6.63;3.67;;;20.20;57.30;;;;;;4476584;32;20136;-73
2022/03/01 12:29:34;;;;;;;5.70;3.88;;;20.20;57.20;;;;;;4476826;32;20603;-72
2022/03/01 12:32:04;;;;;;;5.95;3.83;;;20.20;57.10;;;;;;4476906;32;20057;-73
2022/03/01 12:34:32;;;;;;;5.88;3.75;;;20.20;57.10;;;;;;4462433;32;20207;-72
2022/03/01 12:37:03;;;;;;;6.55;3.90;;;20.20;57.10;;;;;;4476531;32;20129;-73
2022/03/01 12:39:28;;;;;;;5.28;3.50;;;20.20;57.00;;;;;;4476657;32;20558;-73
2022/03/01 12:41:56;;;;;;;5.97;3.88;;;20.20;57.00;;;;;;4476668;32;20084;-73
2022/03/01 12:44:27;;;;;;;6.53;3.63;;;20.20;56.90;;;;;;4462288;32;20088;-72